createdAt,value
2023-02-24T00:01:00.729Z,10.92
2023-02-24T00:03:27.544Z,11.29
2023-02-24T00:05:54.422Z,10.79
2023-02-24T00:08:21.162Z,9.88
2023-02-24T00:10:47.919Z,9.64
2023-02-24T00:13:16.097Z,10.82
2023-02-24T00:15:42.815Z,11.73
2023-02-24T00:18:09.632Z,11.88
2023-02-24T00:20:36.438Z,12.45
2023-02-24T00:23:04.323Z,12.24
2023-02-24T00:25:31.049Z,12.06
2023-02-24T00:27:58.077Z,11.75
2023-02-24T00:30:26.281Z,12.09
2023-02-24T00:32:53.105Z,12.56
2023-02-24T00:35:19.896Z,12.28
2023-02-24T00:37:46.622Z,11.92
2023-02-24T00:40:13.963Z,12.82
2023-02-24T00:42:40.727Z,14.09
2023-02-24T00:45:08.714Z,12.89
2023-02-24T00:47:38.744Z,13.85
2023-02-24T00:50:06.833Z,10.83
2023-02-24T00:52:33.630Z,12.06
2023-02-24T00:55:00.388Z,13.47
2023-02-24T00:57:27.241Z,12.30
2023-02-24T00:59:54.294Z,12.30
2023-02-24T01:02:21.022Z,12.99
2023-02-24T01:04:49.194Z,12.37
2023-02-24T01:07:15.915Z,12.69
2023-02-24T01:09:42.668Z,12.28
2023-02-24T01:12:11.037Z,13.46
2023-02-24T01:14:38.525Z,11.77
2023-02-24T01:17:07.222Z,12.18
2023-02-24T01:19:35.081Z,13.19
2023-02-24T01:22:04.988Z,13.09
2023-02-24T01:24:34.432Z,12.32
2023-02-24T01:27:01.861Z,12.26
2023-02-24T01:29:28.957Z,13.07
2023-02-24T01:31:55.965Z,12.32
2023-02-24T01:34:22.743Z,11.98
2023-02-24T01:36:49.502Z,14.45
2023-02-24T01:39:17.747Z,14.93
2023-02-24T01:41:46.377Z,16.18
2023-02-24T01:44:46.534Z,15.98
2023-02-24T01:47:14.610Z,14.14
2023-02-24T01:49:43.818Z,13.28
2023-02-24T01:52:15.097Z,12.54
2023-02-24T01:54:46.167Z,12.22
2023-02-24T01:57:15.721Z,11.91
2023-02-24T01:59:46.163Z,10.85
2023-02-24T02:02:14.236Z,11.22
2023-02-24T02:04:45.201Z,11.37
2023-02-24T02:07:14.675Z,12.58
2023-02-24T02:09:44.153Z,13.30
2023-02-24T02:12:11.492Z,12.62
2023-02-24T02:14:41.477Z,14.45
2023-02-24T02:17:18.125Z,12.84
2023-02-24T02:20:18.489Z,12.92
2023-02-24T02:23:18.970Z,13.89
2023-02-24T02:26:07.405Z,14.47
2023-02-24T02:28:53.755Z,16.43
2023-02-24T02:31:44.965Z,14.35
2023-02-24T02:34:24.008Z,13.02
2023-02-24T02:37:00.831Z,13.01
2023-02-24T02:39:35.101Z,13.56
2023-02-24T02:42:08.559Z,14.44
2023-02-24T02:44:39.157Z,15.25
2023-02-24T02:47:14.024Z,15.67
2023-02-24T02:49:45.492Z,15.83
2023-02-24T02:52:17.826Z,14.76
2023-02-24T02:54:48.673Z,15.00
2023-02-24T02:57:19.772Z,13.80
2023-02-24T02:59:51.882Z,15.20
2023-02-24T03:02:23.269Z,15.22
2023-02-24T03:04:55.051Z,16.16
2023-02-24T03:07:24.031Z,16.35
2023-02-24T03:09:55.759Z,15.66
2023-02-24T03:12:24.422Z,15.81
2023-02-24T03:14:56.569Z,15.86
2023-02-24T03:17:26.150Z,15.40
2023-02-24T03:20:00.568Z,15.59
2023-02-24T03:22:33.702Z,13.72
2023-02-24T03:25:00.988Z,15.01
2023-02-24T03:27:31.741Z,12.80
2023-02-24T03:30:02.665Z,13.77
2023-02-24T03:32:32.144Z,13.96
2023-02-24T03:35:07.885Z,15.14
2023-02-24T03:37:35.579Z,13.39
2023-02-24T03:40:08.408Z,12.93
2023-02-24T03:42:35.502Z,12.43
2023-02-24T03:45:02.933Z,13.82
2023-02-24T03:47:29.813Z,13.12
2023-02-24T03:49:56.540Z,13.31
2023-02-24T03:52:31.066Z,15.99
2023-02-24T03:55:16.081Z,15.45
2023-02-24T03:57:54.417Z,14.91
2023-02-24T04:00:27.120Z,15.44
2023-02-24T04:03:00.872Z,16.64
2023-02-24T04:05:30.356Z,15.88
2023-02-24T04:08:02.355Z,14.72
2023-02-24T04:10:35.717Z,13.77
2023-02-24T04:13:10.281Z,14.92
2023-02-24T04:15:41.845Z,13.32
2023-02-24T04:18:13.918Z,13.03
2023-02-24T04:20:42.275Z,12.99
2023-02-24T04:23:14.787Z,12.02
2023-02-24T04:25:45.291Z,12.02
2023-02-24T04:28:13.238Z,14.66
2023-02-24T04:30:43.406Z,14.52
2023-02-24T04:33:10.261Z,13.64
2023-02-24T04:35:38.008Z,15.98
2023-02-24T04:38:04.928Z,13.91
2023-02-24T04:40:33.114Z,13.12
2023-02-24T04:42:59.877Z,13.58
2023-02-24T04:45:28.313Z,14.40
2023-02-24T04:47:56.906Z,14.82
2023-02-24T04:50:25.479Z,16.65
2023-02-24T04:52:53.282Z,14.57
2023-02-24T04:55:21.130Z,14.56
2023-02-24T04:57:49.682Z,14.87
2023-02-24T05:00:17.249Z,14.28
2023-02-24T05:02:44.028Z,13.79
2023-02-24T05:05:10.781Z,13.09
2023-02-24T05:07:37.529Z,13.24
2023-02-24T05:10:04.704Z,16.57
2023-02-24T05:12:31.568Z,16.32
2023-02-24T05:14:59.681Z,14.88
2023-02-24T05:17:26.464Z,13.50
2023-02-24T05:19:53.206Z,13.61
2023-02-24T05:22:19.929Z,13.75
2023-02-24T05:24:46.862Z,16.02
2023-02-24T05:27:13.571Z,16.10
2023-02-24T05:29:40.334Z,15.24
2023-02-24T05:32:08.749Z,14.18
2023-02-24T05:34:35.620Z,16.20
2023-02-24T05:37:03.179Z,18.07
2023-02-24T05:39:30.116Z,18.70
2023-02-24T05:41:57.353Z,15.31
2023-02-24T05:44:26.756Z,14.83
2023-02-24T05:46:54.919Z,14.37
2023-02-24T05:49:25.053Z,16.59
2023-02-24T05:51:53.435Z,16.48
2023-02-24T05:54:21.656Z,15.27
2023-02-24T05:56:49.093Z,14.36
2023-02-24T05:59:16.053Z,13.20
2023-02-24T06:01:42.874Z,12.87
2023-02-24T06:04:09.971Z,14.65
2023-02-24T06:06:40.261Z,15.05
2023-02-24T06:09:09.491Z,12.75
2023-02-24T06:11:36.794Z,12.20
2023-02-24T06:14:03.982Z,15.64
2023-02-24T06:16:30.796Z,14.12
2023-02-24T06:18:57.597Z,14.58
2023-02-24T06:21:24.641Z,14.83
2023-02-24T06:23:52.854Z,17.92
2023-02-24T06:26:19.750Z,18.24
2023-02-24T06:28:47.331Z,16.13
2023-02-24T06:31:14.632Z,15.54
2023-02-24T06:33:41.729Z,13.65
2023-02-24T06:36:08.906Z,14.70
2023-02-24T06:38:37.134Z,14.29
2023-02-24T06:41:07.163Z,13.82
2023-02-24T06:43:34.268Z,14.43
2023-02-24T06:46:02.433Z,12.59
2023-02-24T06:48:29.326Z,13.30
2023-02-24T06:50:56.114Z,12.97
2023-02-24T06:53:22.868Z,12.42
2023-02-24T06:55:51.750Z,14.51
2023-02-24T06:58:21.609Z,15.60
2023-02-24T07:00:48.888Z,14.35
2023-02-24T07:03:17.152Z,15.60
2023-02-24T07:05:45.968Z,14.45
2023-02-24T07:08:14.211Z,13.58
2023-02-24T07:10:41.440Z,13.32
2023-02-24T07:13:08.166Z,14.05
2023-02-24T07:15:36.450Z,13.33
2023-02-24T07:18:03.775Z,12.44
2023-02-24T07:20:30.701Z,13.38
2023-02-24T07:22:57.864Z,15.07
2023-02-24T07:25:24.787Z,13.97
2023-02-24T07:27:51.505Z,13.71
2023-02-24T07:30:18.850Z,14.86
2023-02-24T07:32:49.002Z,14.20
2023-02-24T07:35:16.283Z,13.92
2023-02-24T07:37:43.924Z,12.41
2023-02-24T07:40:12.409Z,12.92
2023-02-24T07:42:39.358Z,14.26
2023-02-24T07:45:08.359Z,13.82
2023-02-24T07:47:35.344Z,13.71
2023-02-24T07:50:04.150Z,14.36
2023-02-24T07:52:31.089Z,13.53
2023-02-24T07:54:57.898Z,12.67
2023-02-24T07:57:24.740Z,12.36
2023-02-24T07:59:51.480Z,12.31
2023-02-24T08:02:18.328Z,13.27
2023-02-24T08:04:45.663Z,13.78
2023-02-24T08:07:13.872Z,13.32
2023-02-24T08:09:40.713Z,13.51
2023-02-24T08:12:07.566Z,12.43
2023-02-24T08:14:34.748Z,12.56
2023-02-24T08:17:02.690Z,13.51
2023-02-24T08:19:31.440Z,12.74
2023-02-24T08:22:00.231Z,11.34
2023-02-24T08:24:28.937Z,11.52
2023-02-24T08:26:56.898Z,11.07
2023-02-24T08:29:23.860Z,11.17
2023-02-24T08:31:51.188Z,11.37
2023-02-24T08:34:18.485Z,12.14
2023-02-24T08:36:45.407Z,12.01
2023-02-24T08:39:12.485Z,11.67
2023-02-24T08:41:41.053Z,13.63
2023-02-24T08:44:08.244Z,14.30
2023-02-24T08:46:35.087Z,14.62
2023-02-24T08:49:01.849Z,13.46
2023-02-24T08:51:31.805Z,15.31
2023-02-24T08:54:01.035Z,15.52
2023-02-24T08:56:29.734Z,16.94
2023-02-24T08:58:59.652Z,19.60
2023-02-24T09:01:28.708Z,18.03
2023-02-24T09:03:57.174Z,15.57
2023-02-24T09:06:34.464Z,13.97
2023-02-24T09:09:01.450Z,13.61
2023-02-24T09:11:28.328Z,13.18
2023-02-24T09:13:55.077Z,12.72
2023-02-24T09:16:23.299Z,14.75
2023-02-24T09:18:50.371Z,16.88
2023-02-24T09:21:17.234Z,15.85
2023-02-24T09:23:44.001Z,17.65
2023-02-24T09:26:10.753Z,19.48
2023-02-24T09:28:37.736Z,22.06
2023-02-24T09:31:04.860Z,22.94
2023-02-24T09:33:35.175Z,23.23
2023-02-24T09:36:04.951Z,23.88
2023-02-24T09:38:32.032Z,23.03
2023-02-24T09:41:02.782Z,22.55
2023-02-24T09:43:31.962Z,22.21
2023-02-24T09:46:05.240Z,23.27
2023-02-24T09:48:39.419Z,23.19
2023-02-24T09:51:06.273Z,24.88
2023-02-24T09:53:35.518Z,24.53
2023-02-24T09:56:08.473Z,27.04
2023-02-24T09:58:44.260Z,28.47
2023-02-24T10:01:23.417Z,27.68
2023-02-24T10:03:56.855Z,27.29
2023-02-24T10:06:26.308Z,27.83
2023-02-24T10:08:58.008Z,29.10
2023-02-24T10:11:26.414Z,26.94
2023-02-24T10:13:55.089Z,29.34
2023-02-24T10:16:23.161Z,28.68
2023-02-24T10:18:55.874Z,27.43
2023-02-24T10:21:28.517Z,27.48
2023-02-24T10:24:07.787Z,27.24
2023-02-24T10:26:45.445Z,29.65
2023-02-24T10:29:28.121Z,28.03
2023-02-24T10:32:07.493Z,30.59
2023-02-24T10:34:35.689Z,30.50
2023-02-24T10:37:19.338Z,32.48
2023-02-24T10:39:57.712Z,30.26
2023-02-24T10:42:27.389Z,31.22
2023-02-24T10:45:09.869Z,30.75
2023-02-24T10:47:36.777Z,30.32
2023-02-24T10:50:06.008Z,31.30
2023-02-24T10:52:36.120Z,30.31
2023-02-24T10:55:06.441Z,30.32
2023-02-24T10:57:33.248Z,31.28
2023-02-24T11:00:00.431Z,30.16
2023-02-24T11:02:27.421Z,29.29
2023-02-24T11:04:55.339Z,28.29
2023-02-24T11:07:23.868Z,32.26
2023-02-24T11:10:03.241Z,31.53
2023-02-24T11:12:30.353Z,31.03
2023-02-24T11:15:01.091Z,33.22
2023-02-24T11:17:28.030Z,32.76
2023-02-24T11:19:58.758Z,34.49
2023-02-24T11:22:32.582Z,32.47
2023-02-24T11:25:05.723Z,30.48
2023-02-24T11:27:33.272Z,31.42
2023-02-24T11:30:14.871Z,32.40
2023-02-24T11:33:05.139Z,32.88
2023-02-24T11:35:39.177Z,32.72
2023-02-24T11:38:16.133Z,32.42
2023-02-24T11:40:46.540Z,31.25
2023-02-24T11:43:17.616Z,34.02
2023-02-24T11:45:48.414Z,33.33
2023-02-24T11:48:19.484Z,38.43
2023-02-24T11:50:50.336Z,38.60
2023-02-24T11:53:28.550Z,34.31
2023-02-24T11:56:01.601Z,31.39
2023-02-24T11:58:35.630Z,32.72
2023-02-24T12:01:10.179Z,33.14
2023-02-24T12:03:43.835Z,33.94
2023-02-24T12:06:19.320Z,34.96
2023-02-24T12:08:53.042Z,33.67
2023-02-24T12:11:28.166Z,32.75
2023-02-24T12:14:06.837Z,32.92
2023-02-24T12:16:39.316Z,31.72
2023-02-24T12:19:15.228Z,30.44
2023-02-24T12:21:44.903Z,31.50
2023-02-24T12:24:14.518Z,31.49
2023-02-24T12:26:51.176Z,29.79
2023-02-24T12:29:37.392Z,29.68
2023-02-24T12:32:14.149Z,32.14
2023-02-24T12:34:53.162Z,29.54
2023-02-24T12:37:36.781Z,30.42
2023-02-24T12:40:15.986Z,32.41
2023-02-24T12:42:49.884Z,32.28
2023-02-24T12:45:22.017Z,31.84
2023-02-24T12:48:00.831Z,30.15
2023-02-24T12:50:37.810Z,30.32
2023-02-24T12:53:13.308Z,31.04
2023-02-24T12:55:50.566Z,29.96
2023-02-24T12:58:21.811Z,31.81
2023-02-24T13:01:06.143Z,31.43
2023-02-24T13:03:49.563Z,31.05
2023-02-24T13:06:24.640Z,30.17
2023-02-24T13:09:00.144Z,28.80
2023-02-24T13:11:39.940Z,30.24
2023-02-24T13:14:14.512Z,33.81
2023-02-24T13:16:41.369Z,31.26
2023-02-24T13:19:20.215Z,31.94
2023-02-24T13:22:01.988Z,34.81
2023-02-24T13:24:35.777Z,32.38
2023-02-24T13:27:22.133Z,31.58
2023-02-24T13:29:50.953Z,33.67
2023-02-24T13:32:31.795Z,33.90
2023-02-24T13:35:02.114Z,33.16
2023-02-24T13:37:32.044Z,31.21
2023-02-24T13:39:59.134Z,32.82
2023-02-24T13:42:28.898Z,31.70
2023-02-24T13:45:04.180Z,33.41
2023-02-24T13:48:07.382Z,31.03
2023-02-24T13:50:40.876Z,30.38
2023-02-24T13:53:28.446Z,29.72
2023-02-24T13:56:18.354Z,28.63
2023-02-24T13:59:04.029Z,29.07
2023-02-24T14:01:33.407Z,28.09
2023-02-24T14:04:06.780Z,28.87
2023-02-24T14:06:40.082Z,28.58
2023-02-24T14:09:09.589Z,29.45
2023-02-24T14:11:38.869Z,29.23
2023-02-24T14:14:16.066Z,30.07
2023-02-24T14:16:46.434Z,29.64
2023-02-24T14:19:15.411Z,29.34
2023-02-24T14:21:48.853Z,29.31
2023-02-24T14:24:15.865Z,30.43
2023-02-24T14:26:45.006Z,31.85
2023-02-24T14:29:18.599Z,30.42
2023-02-24T14:31:47.836Z,31.14
2023-02-24T14:34:19.924Z,29.25
2023-02-24T14:36:48.431Z,30.62
2023-02-24T14:39:17.408Z,33.26
2023-02-24T14:41:45.012Z,29.40
2023-02-24T14:44:21.120Z,29.56
2023-02-24T14:46:50.685Z,32.39
2023-02-24T14:49:21.140Z,31.45
2023-02-24T14:51:50.627Z,28.75
2023-02-24T14:54:25.805Z,29.41
2023-02-24T14:56:52.912Z,30.22
2023-02-24T14:59:28.490Z,28.96
2023-02-24T15:01:57.095Z,28.03
2023-02-24T15:04:32.105Z,28.26
2023-02-24T15:07:01.784Z,26.67
2023-02-24T15:09:35.500Z,28.42
2023-02-24T15:12:13.366Z,28.67
2023-02-24T15:14:47.230Z,28.74
2023-02-24T15:17:18.139Z,28.62
2023-02-24T15:19:44.948Z,28.14
2023-02-24T15:22:24.917Z,27.20
2023-02-24T15:24:53.361Z,26.28
2023-02-24T15:27:24.496Z,26.72
2023-02-24T15:30:05.164Z,26.10
2023-02-24T15:32:35.195Z,25.64
2023-02-24T15:35:02.550Z,26.14
2023-02-24T15:37:37.596Z,25.16
2023-02-24T15:40:15.842Z,28.74
2023-02-24T15:42:50.226Z,29.84
2023-02-24T15:45:30.718Z,29.49
2023-02-24T15:47:59.841Z,28.26
2023-02-24T15:50:27.679Z,26.63
2023-02-24T15:52:56.947Z,27.22
2023-02-24T15:55:25.871Z,27.02
2023-02-24T15:57:59.126Z,29.46
2023-02-24T16:00:27.686Z,29.62
2023-02-24T16:02:54.556Z,29.44
2023-02-24T16:05:21.317Z,29.41
2023-02-24T16:07:49.507Z,29.03
2023-02-24T16:10:23.496Z,29.65
2023-02-24T16:12:53.301Z,29.22
2023-02-24T16:15:24.075Z,26.88
2023-02-24T16:17:52.732Z,27.52
2023-02-24T16:20:22.104Z,28.46
2023-02-24T16:22:48.855Z,30.27
2023-02-24T16:25:16.388Z,30.57
2023-02-24T16:27:45.667Z,29.70
2023-02-24T16:30:16.409Z,29.53
2023-02-24T16:32:43.883Z,31.07
2023-02-24T16:35:12.591Z,31.22
2023-02-24T16:37:40.195Z,30.65
2023-02-24T16:40:19.261Z,29.60
2023-02-24T16:42:46.337Z,28.01
2023-02-24T16:45:13.485Z,28.28
2023-02-24T16:47:40.913Z,28.69
2023-02-24T16:50:17.278Z,31.16
2023-02-24T16:52:44.208Z,28.97
2023-02-24T16:55:12.449Z,33.11
2023-02-24T16:57:39.194Z,31.76
2023-02-24T17:00:07.336Z,30.06
2023-02-24T17:02:34.269Z,32.04
2023-02-24T17:05:01.239Z,32.13
2023-02-24T17:07:29.409Z,31.05
2023-02-24T17:09:56.261Z,29.94
2023-02-24T17:12:23.000Z,29.22
2023-02-24T17:14:49.867Z,28.96
2023-02-24T17:17:16.723Z,27.67
2023-02-24T17:19:43.521Z,29.50
2023-02-24T17:22:10.284Z,29.92
2023-02-24T17:24:38.497Z,32.91
2023-02-24T17:27:05.226Z,33.87
2023-02-24T17:29:32.079Z,29.74
2023-02-24T17:31:59.041Z,29.37
2023-02-24T17:34:26.135Z,29.86
2023-02-24T17:36:53.031Z,27.75
2023-02-24T17:39:19.755Z,28.43
2023-02-24T17:41:47.965Z,28.61
2023-02-24T17:44:14.833Z,27.85
2023-02-24T17:46:41.693Z,26.01
2023-02-24T17:49:08.732Z,29.21
2023-02-24T17:51:35.445Z,28.94
2023-02-24T17:54:02.212Z,28.39
2023-02-24T17:56:28.994Z,29.19
2023-02-24T17:58:57.181Z,30.61
2023-02-24T18:01:23.997Z,31.00
2023-02-24T18:03:50.755Z,33.65
2023-02-24T18:06:17.589Z,35.85
2023-02-24T18:08:44.351Z,36.02
2023-02-24T18:11:15.344Z,34.73
2023-02-24T18:13:42.424Z,34.58
2023-02-24T18:16:12.948Z,33.67
2023-02-24T18:18:40.592Z,34.09
2023-02-24T18:21:07.938Z,30.29
2023-02-24T18:23:35.200Z,27.35
2023-02-24T18:26:03.072Z,27.26
2023-02-24T18:28:30.057Z,29.54
2023-02-24T18:30:56.941Z,30.07
2023-02-24T18:33:25.310Z,30.07
2023-02-24T18:35:57.428Z,30.56
2023-02-24T18:38:24.226Z,29.54
2023-02-24T18:40:57.387Z,33.73
2023-02-24T18:43:24.220Z,35.16
2023-02-24T18:45:56.287Z,37.67
2023-02-24T18:48:23.225Z,36.29
2023-02-24T18:50:52.828Z,37.98
2023-02-24T18:53:20.178Z,36.79
2023-02-24T18:55:47.033Z,40.39
2023-02-24T18:58:14.809Z,40.49
2023-02-24T19:00:42.437Z,41.04
2023-02-24T19:03:09.325Z,45.34
2023-02-24T19:05:38.764Z,39.91
2023-02-24T19:08:07.251Z,40.16
2023-02-24T19:10:35.461Z,38.46
2023-02-24T19:13:02.331Z,39.45
2023-02-24T19:15:29.050Z,41.16
2023-02-24T19:17:55.895Z,42.80
2023-02-24T19:20:22.652Z,39.45
2023-02-24T19:22:51.614Z,37.30
2023-02-24T19:25:19.961Z,36.61
2023-02-24T19:27:46.764Z,39.89
2023-02-24T19:30:14.603Z,37.55
2023-02-24T19:32:41.997Z,37.96
2023-02-24T19:35:09.783Z,38.23
2023-02-24T19:37:36.647Z,38.34
2023-02-24T19:40:09.993Z,37.19
2023-02-24T19:42:50.462Z,37.02
2023-02-24T19:45:49.436Z,36.61
2023-02-24T19:48:41.021Z,34.21
2023-02-24T19:57:24.988Z,33.64
2023-02-24T19:59:56.634Z,35.91
2023-02-24T20:02:30.100Z,35.94
2023-02-24T20:08:22.068Z,37.08
2023-02-24T20:11:01.691Z,34.34
2023-02-24T20:13:37.697Z,34.28
2023-02-24T20:16:44.561Z,33.15
2023-02-24T20:19:32.309Z,32.45
2023-02-24T20:22:41.196Z,31.29
2023-02-24T20:25:33.103Z,33.71
2023-02-24T20:31:23.584Z,33.05
2023-02-24T20:33:52.982Z,27.82
2023-02-24T20:36:22.972Z,28.44
2023-02-24T20:38:50.968Z,28.25
2023-02-24T20:41:19.553Z,27.29
2023-02-24T20:43:46.835Z,28.40
2023-02-24T20:46:15.906Z,26.52
2023-02-24T20:48:43.479Z,27.61
2023-02-24T20:51:12.463Z,28.84
2023-02-24T20:53:51.057Z,30.02
2023-02-24T20:56:25.110Z,30.63
2023-02-24T20:58:53.280Z,30.41
2023-02-24T21:01:20.887Z,30.28
2023-02-24T21:03:48.218Z,31.41
2023-02-24T21:06:17.728Z,29.85
2023-02-24T21:08:44.769Z,30.59
2023-02-24T21:11:12.770Z,27.63
2023-02-24T21:13:40.622Z,28.65
2023-02-24T21:16:08.164Z,28.65
2023-02-24T21:18:35.767Z,26.57
2023-02-24T21:21:02.647Z,27.52
2023-02-24T21:23:30.767Z,27.12
2023-02-24T21:25:57.523Z,25.22
2023-02-24T21:28:24.538Z,25.80
2023-02-24T21:30:51.621Z,26.84
2023-02-24T21:33:19.425Z,27.04
2023-02-24T21:35:56.911Z,26.26
2023-02-24T21:38:23.746Z,25.54
2023-02-24T21:40:51.944Z,26.66
2023-02-24T21:43:18.694Z,25.70
2023-02-24T21:45:45.493Z,26.80
2023-02-24T21:48:12.310Z,30.53
2023-02-24T21:50:39.209Z,27.74
2023-02-24T21:53:05.978Z,26.27
2023-02-24T21:55:32.762Z,25.92
2023-02-24T21:58:00.967Z,25.20
2023-02-24T22:00:27.729Z,25.45
2023-02-24T22:02:55.890Z,25.82
2023-02-24T22:05:24.760Z,25.84
2023-02-24T22:07:51.910Z,22.56
2023-02-24T22:10:20.200Z,23.65
2023-02-24T22:12:47.474Z,24.65
2023-02-24T22:15:15.686Z,25.38
2023-02-24T22:17:42.889Z,26.71
2023-02-24T22:20:12.767Z,25.35
2023-02-24T22:22:41.804Z,25.05
2023-02-24T22:25:09.858Z,24.22
2023-02-24T22:27:36.776Z,23.62
2023-02-24T22:30:04.545Z,24.31
2023-02-24T22:32:32.811Z,24.15
2023-02-24T22:34:59.657Z,25.54
2023-02-24T22:37:26.449Z,23.61
2023-02-24T22:39:53.194Z,22.22
2023-02-24T22:42:19.897Z,20.60
2023-02-24T22:44:46.680Z,21.80
2023-02-24T22:47:13.420Z,27.32
2023-02-24T22:49:41.690Z,24.27
2023-02-24T22:52:08.472Z,24.05
2023-02-24T22:54:35.275Z,24.37
2023-02-24T22:57:04.340Z,21.50
2023-02-24T22:59:31.120Z,22.23
2023-02-24T23:01:57.883Z,22.83
2023-02-24T23:04:24.708Z,23.59
2023-02-24T23:06:52.948Z,21.96
2023-02-24T23:09:20.007Z,22.53
2023-02-24T23:11:47.355Z,22.33
2023-02-24T23:14:15.528Z,21.69
2023-02-24T23:16:44.618Z,20.46
2023-02-24T23:19:14.132Z,22.92
2023-02-24T23:21:42.593Z,24.32
2023-02-24T23:24:13.608Z,22.93
2023-02-24T23:26:42.936Z,24.91
2023-02-24T23:29:10.741Z,22.11
2023-02-24T23:31:38.569Z,21.62
2023-02-24T23:34:05.492Z,20.58
2023-02-24T23:36:33.186Z,19.75
2023-02-24T23:38:59.996Z,20.69
2023-02-24T23:41:28.333Z,20.08
2023-02-24T23:43:55.095Z,23.36
2023-02-24T23:46:22.327Z,23.10
2023-02-24T23:48:51.319Z,23.68
2023-02-24T23:51:18.551Z,23.02
2023-02-24T23:53:46.942Z,22.31
2023-02-24T23:56:16.397Z,23.34
2023-02-24T23:58:45.330Z,24.74
